createdAt,value
2023-03-13T00:01:22.249Z,5.85
2023-03-13T00:06:18.892Z,6.43
2023-03-13T00:11:15.853Z,6.55
2023-03-13T00:21:09.773Z,5.60
2023-03-13T00:26:08.940Z,4.97
2023-03-13T00:31:07.290Z,5.63
2023-03-13T00:36:06.366Z,5.13
2023-03-13T00:41:04.931Z,5.10
2023-03-13T00:46:02.044Z,5.63
2023-03-13T00:50:59.012Z,5.28
2023-03-13T01:00:55.750Z,6.03
2023-03-13T01:05:56.559Z,6.03
2023-03-13T01:11:05.691Z,5.70
2023-03-13T01:16:04.385Z,5.13
2023-03-13T01:21:01.332Z,5.68
2023-03-13T01:30:54.402Z,4.90
2023-03-13T01:35:51.150Z,6.30
2023-03-13T01:40:49.297Z,7.00
2023-03-13T01:45:54.655Z,5.88
2023-03-13T01:50:51.111Z,6.03
2023-03-13T01:55:47.747Z,5.63
2023-03-13T02:00:45.169Z,5.55
2023-03-13T02:05:42.758Z,6.00
2023-03-13T02:10:43.216Z,5.13
2023-03-13T02:15:40.834Z,6.13
2023-03-13T02:20:39.843Z,5.38
2023-03-13T02:25:51.338Z,6.50
2023-03-13T02:30:49.783Z,4.95
2023-03-13T02:35:46.746Z,5.95
2023-03-13T02:40:45.415Z,5.60
2023-03-13T02:45:41.923Z,5.47
2023-03-13T02:50:38.531Z,5.88
2023-03-13T02:55:41.544Z,4.60
2023-03-13T03:00:38.157Z,5.05
2023-03-13T03:05:34.686Z,5.28
2023-03-13T03:10:36.221Z,4.85
2023-03-13T03:15:32.687Z,4.50
2023-03-13T03:20:29.100Z,5.38
2023-03-13T03:25:25.577Z,4.97
2023-03-13T03:30:22.043Z,5.30
2023-03-13T03:35:18.542Z,4.75
2023-03-13T03:40:15.069Z,4.97
2023-03-13T03:45:11.566Z,6.13
2023-03-13T03:50:10.934Z,3.97
2023-03-13T03:55:07.654Z,4.50
2023-03-13T04:00:06.101Z,4.95
2023-03-13T04:05:02.530Z,4.03
2023-03-13T04:09:59.162Z,4.72
2023-03-13T04:14:55.607Z,4.95
2023-03-13T04:19:52.109Z,5.32
2023-03-13T04:24:50.646Z,4.32
2023-03-13T04:29:47.113Z,4.60
2023-03-13T04:34:43.543Z,5.35
2023-03-13T04:39:41.292Z,4.25
2023-03-13T04:44:37.745Z,4.63
2023-03-13T04:49:35.028Z,4.55
2023-03-13T04:54:31.501Z,5.38
2023-03-13T04:59:28.019Z,4.30
2023-03-13T05:04:24.500Z,3.83
2023-03-13T05:09:22.091Z,4.85
2023-03-13T05:14:19.438Z,4.05
2023-03-13T05:19:15.872Z,4.55
2023-03-13T05:24:12.309Z,4.30
2023-03-13T05:29:08.791Z,4.38
2023-03-13T05:34:05.271Z,3.63
2023-03-13T05:39:01.784Z,4.43
2023-03-13T05:43:58.222Z,3.72
2023-03-13T05:48:54.729Z,3.90
2023-03-13T05:53:51.149Z,4.93
2023-03-13T05:58:47.625Z,4.65
2023-03-13T06:03:44.146Z,3.70
2023-03-13T06:08:40.853Z,3.63
2023-03-13T06:13:37.356Z,3.22
2023-03-13T06:18:33.850Z,2.85
2023-03-13T06:23:30.290Z,3.38
2023-03-13T06:28:26.754Z,2.38
2023-03-13T06:33:23.202Z,2.72
2023-03-13T06:38:19.692Z,1.88
2023-03-13T06:43:16.159Z,3.47
2023-03-13T06:48:12.663Z,1.65
2023-03-13T06:53:16.022Z,1.83
2023-03-13T06:58:25.373Z,2.55
2023-03-13T07:03:27.890Z,1.75
2023-03-13T07:08:25.836Z,1.65
2023-03-13T07:13:22.360Z,2.15
2023-03-13T07:18:18.841Z,2.00
2023-03-13T07:23:15.378Z,2.08
2023-03-13T07:28:11.948Z,2.95
2023-03-13T07:33:08.613Z,2.15
2023-03-13T07:38:05.159Z,2.42
2023-03-13T07:43:01.685Z,2.30
2023-03-13T07:47:58.231Z,2.10
2023-03-13T07:52:54.683Z,2.20
2023-03-13T07:57:51.390Z,2.03
2023-03-13T08:02:47.875Z,1.75
2023-03-13T08:07:47.417Z,2.10
2023-03-13T08:12:43.999Z,2.45
2023-03-13T08:17:40.494Z,3.67
2023-03-13T08:22:38.109Z,2.65
2023-03-13T08:27:34.644Z,2.47
2023-03-13T08:32:35.055Z,3.00
2023-03-13T08:37:31.564Z,2.70
2023-03-13T08:42:30.040Z,3.03
2023-03-13T08:48:18.244Z,2.85
2023-03-13T08:52:50.808Z,3.13
2023-03-13T08:57:53.421Z,3.85
2023-03-13T09:02:56.006Z,3.53
2023-03-13T09:07:53.913Z,3.92
2023-03-13T09:12:51.484Z,3.85
2023-03-13T09:17:48.891Z,4.07
2023-03-13T09:22:46.175Z,4.82
2023-03-13T09:27:49.122Z,4.70
2023-03-13T09:32:51.844Z,4.35
2023-03-13T09:43:01.868Z,4.40
2023-03-13T09:48:03.129Z,4.60
2023-03-13T09:53:13.124Z,4.68
2023-03-13T09:58:19.872Z,4.38
2023-03-13T10:03:29.538Z,5.28
2023-03-13T10:08:57.853Z,5.00
2023-03-13T10:14:22.270Z,4.60
2023-03-13T10:19:28.062Z,4.85
2023-03-13T10:24:47.757Z,4.82
2023-03-13T10:29:47.677Z,4.50
2023-03-13T10:34:55.962Z,4.25
2023-03-13T10:40:05.588Z,5.35
2023-03-13T10:45:05.404Z,4.10
2023-03-13T10:50:02.920Z,3.20
2023-03-13T10:55:09.042Z,3.38
2023-03-13T11:00:30.832Z,3.63
2023-03-13T11:05:36.412Z,3.60
2023-03-13T11:10:40.376Z,3.35
2023-03-13T11:15:57.665Z,2.97
2023-03-13T11:21:12.161Z,3.10
2023-03-13T11:26:28.783Z,2.80
2023-03-13T11:31:44.873Z,2.38
2023-03-13T11:37:26.182Z,2.22
2023-03-13T11:48:46.128Z,1.80
2023-03-13T11:54:20.553Z,1.65
2023-03-13T11:59:16.997Z,1.80
2023-03-13T12:04:20.624Z,1.80
2023-03-13T12:09:21.884Z,2.22
2023-03-13T12:14:33.481Z,2.10
2023-03-13T12:19:34.547Z,1.60
2023-03-13T12:24:54.950Z,1.88
2023-03-13T12:30:06.175Z,1.80
2023-03-13T12:35:20.310Z,1.88
2023-03-13T12:40:47.684Z,1.95
2023-03-13T12:45:59.502Z,1.40
2023-03-13T12:51:20.779Z,1.40
2023-03-13T12:56:33.370Z,1.80
2023-03-13T13:01:33.781Z,1.30
2023-03-13T13:06:50.316Z,1.20
2023-03-13T13:11:57.638Z,1.30
2023-03-13T13:17:16.762Z,1.30
2023-03-13T13:22:37.893Z,1.10
2023-03-13T13:27:37.149Z,1.10
2023-03-13T13:32:38.876Z,1.17
2023-03-13T13:37:35.647Z,1.30
2023-03-13T13:42:41.967Z,1.20
2023-03-13T13:47:38.511Z,1.13
2023-03-13T13:52:45.448Z,1.30
2023-03-13T13:57:59.175Z,8.65
2023-03-13T14:03:20.945Z,1.25
2023-03-13T14:08:23.929Z,1.45
2023-03-13T14:13:31.244Z,1.70
2023-03-13T14:18:35.234Z,1.20
2023-03-13T14:23:40.070Z,1.05
2023-03-13T14:28:41.172Z,1.40
2023-03-13T14:33:40.659Z,1.05
2023-03-13T14:38:38.072Z,1.50
2023-03-13T14:43:56.053Z,1.30
2023-03-13T14:48:57.049Z,1.30
2023-03-13T14:54:04.618Z,1.42
2023-03-13T14:59:16.644Z,1.30
2023-03-13T15:04:19.753Z,1.17
2023-03-13T15:09:22.555Z,1.67
2023-03-13T15:14:42.911Z,1.10
2023-03-13T15:19:43.071Z,1.10
2023-03-13T15:24:56.295Z,1.20
2023-03-13T15:30:02.036Z,1.40
2023-03-13T15:34:58.998Z,1.50
2023-03-13T15:39:57.440Z,1.35
2023-03-13T15:44:56.324Z,1.30
2023-03-13T15:49:53.291Z,1.30
2023-03-13T15:54:55.271Z,1.00
2023-03-13T15:59:53.408Z,1.63
2023-03-13T16:04:50.770Z,1.42
2023-03-13T16:09:48.315Z,1.63
2023-03-13T16:14:45.329Z,1.42
2023-03-13T16:19:45.372Z,1.00
2023-03-13T16:24:42.353Z,1.23
2023-03-13T16:29:39.480Z,0.98
2023-03-13T16:34:36.015Z,1.10
2023-03-13T16:39:32.658Z,1.20
2023-03-13T16:44:29.383Z,1.15
2023-03-13T16:49:25.963Z,1.30
2023-03-13T16:54:22.623Z,1.33
2023-03-13T16:59:19.710Z,1.27
2023-03-13T17:04:17.540Z,1.33
2023-03-13T17:09:18.790Z,1.35
2023-03-13T17:14:15.338Z,1.05
2023-03-13T17:24:14.826Z,1.35
2023-03-13T17:34:15.398Z,1.17
2023-03-13T17:39:13.909Z,1.33
2023-03-13T17:44:12.972Z,1.38
2023-03-13T17:49:16.524Z,1.48
2023-03-13T17:54:15.799Z,1.30
2023-03-13T17:59:18.754Z,1.25
2023-03-13T18:04:15.762Z,1.08
2023-03-13T18:09:21.029Z,1.30
2023-03-13T18:14:18.186Z,1.60
2023-03-13T18:19:22.471Z,1.33
2023-03-13T18:24:26.947Z,1.30
2023-03-13T18:29:29.320Z,1.77
2023-03-13T18:34:28.043Z,1.35
2023-03-13T18:39:50.944Z,1.85
2023-03-13T18:44:59.212Z,1.40
2023-03-13T18:49:55.968Z,1.90
2023-03-13T18:54:54.938Z,2.08
2023-03-13T18:59:54.588Z,1.70
2023-03-13T19:04:51.358Z,1.67
2023-03-13T19:10:19.593Z,1.80
2023-03-13T19:15:35.721Z,2.38
2023-03-13T19:27:16.043Z,1.90
2023-03-13T19:32:19.283Z,1.80
2023-03-13T19:37:18.754Z,1.83
2023-03-13T19:42:15.314Z,2.10
2023-03-13T19:57:38.452Z,2.58
2023-03-13T20:09:57.909Z,2.20
2023-03-13T20:15:13.971Z,2.35
2023-03-13T20:20:17.331Z,2.80
2023-03-13T20:25:28.478Z,2.85
2023-03-13T20:30:57.614Z,2.35
2023-03-13T20:36:34.033Z,2.45
2023-03-13T20:41:56.248Z,2.55
2023-03-13T20:47:05.328Z,2.50
2023-03-13T20:53:01.904Z,2.22
2023-03-13T20:58:16.304Z,2.30
2023-03-13T21:03:22.592Z,2.92
2023-03-13T21:08:19.055Z,1.95
2023-03-13T21:13:15.517Z,2.10
2023-03-13T21:18:12.025Z,2.17
2023-03-13T21:23:08.526Z,1.90
2023-03-13T21:28:07.205Z,1.98
2023-03-13T21:33:03.983Z,1.77
2023-03-13T21:38:00.460Z,2.17
2023-03-13T21:42:56.984Z,1.90
2023-03-13T21:47:56.263Z,2.47
2023-03-13T21:52:52.702Z,1.55
2023-03-13T21:57:49.176Z,1.70
2023-03-13T22:02:45.804Z,1.80
2023-03-13T22:07:42.434Z,1.70
2023-03-13T22:17:35.386Z,2.40
2023-03-13T22:22:31.925Z,1.73
2023-03-13T22:27:28.453Z,1.40
2023-03-13T22:32:26.380Z,2.00
2023-03-13T22:37:26.538Z,1.60
2023-03-13T22:42:24.226Z,1.90
2023-03-13T22:47:20.865Z,1.70
2023-03-13T22:52:17.392Z,1.52
2023-03-13T22:57:13.846Z,1.80
2023-03-13T23:02:10.355Z,1.75
2023-03-13T23:07:06.787Z,1.85
2023-03-13T23:12:03.281Z,1.75
2023-03-13T23:17:00.147Z,2.38
2023-03-13T23:21:58.636Z,1.70
2023-03-13T23:26:55.103Z,2.08
2023-03-13T23:31:52.697Z,1.90
2023-03-13T23:36:49.688Z,1.88
2023-03-13T23:41:46.227Z,2.03
2023-03-13T23:46:42.728Z,1.95
2023-03-13T23:51:39.425Z,2.20
